createdAt,value
2023-05-16T00:00:42.992Z,20.80
2023-05-16T00:01:44.338Z,22.93
2023-05-16T00:02:46.388Z,24.40
2023-05-16T00:03:48.303Z,21.93
2023-05-16T00:04:49.821Z,24.17
2023-05-16T00:05:51.962Z,30.17
2023-05-16T00:06:53.266Z,29.33
2023-05-16T00:07:54.593Z,29.87
2023-05-16T00:08:56.053Z,30.13
2023-05-16T00:09:57.534Z,36.27
2023-05-16T00:10:58.943Z,37.17
2023-05-16T00:12:00.404Z,38.60
2023-05-16T00:13:01.960Z,36.03
2023-05-16T00:14:03.901Z,34.97
2023-05-16T00:15:08.725Z,38.57
2023-05-16T00:16:14.771Z,39.20
2023-05-16T00:17:17.618Z,44.97
2023-05-16T00:18:19.475Z,43.47
2023-05-16T00:19:20.923Z,40.80
2023-05-16T00:20:24.751Z,44.40
2023-05-16T00:21:26.503Z,42.47
2023-05-16T00:22:27.900Z,45.10
2023-05-16T00:23:29.353Z,43.13
2023-05-16T00:24:30.947Z,45.23
2023-05-16T00:25:32.393Z,43.37
2023-05-16T00:26:33.770Z,45.43
2023-05-16T00:27:35.923Z,45.87
2023-05-16T00:28:38.567Z,46.23
2023-05-16T00:29:39.969Z,47.37
2023-05-16T00:30:41.554Z,48.37
2023-05-16T00:31:43.049Z,42.83
2023-05-16T00:32:45.925Z,47.00
2023-05-16T00:33:47.303Z,43.67
2023-05-16T00:34:48.662Z,46.77
2023-05-16T00:35:50.357Z,46.37
2023-05-16T00:36:53.258Z,47.93
2023-05-16T00:37:54.869Z,47.23
2023-05-16T00:38:56.415Z,44.17
2023-05-16T00:39:57.984Z,42.70
2023-05-16T00:40:59.390Z,42.20
2023-05-16T00:42:01.318Z,44.67
2023-05-16T00:43:02.676Z,44.60
2023-05-16T00:44:04.064Z,45.20
2023-05-16T00:45:06.316Z,43.17
2023-05-16T00:46:07.704Z,47.77
2023-05-16T00:47:10.174Z,46.03
2023-05-16T00:48:12.533Z,45.83
2023-05-16T00:49:14.184Z,50.17
2023-05-16T00:50:15.931Z,47.43
2023-05-16T00:51:18.253Z,45.47
2023-05-16T00:52:19.774Z,45.30
2023-05-16T00:53:21.180Z,47.73
2023-05-16T00:54:23.190Z,49.40
2023-05-16T00:55:24.876Z,46.73
2023-05-16T00:56:26.272Z,45.93
2023-05-16T00:57:28.486Z,46.03
2023-05-16T00:58:30.641Z,46.47
2023-05-16T00:59:32.393Z,44.07
2023-05-16T01:00:34.097Z,45.53
2023-05-16T01:01:36.833Z,48.27
2023-05-16T01:02:38.560Z,47.87
2023-05-16T01:03:40.714Z,44.60
2023-05-16T01:04:43.289Z,46.30
2023-05-16T01:05:47.668Z,47.43
2023-05-16T01:06:49.011Z,48.30
2023-05-16T01:07:50.476Z,50.93
2023-05-16T01:08:51.996Z,47.43
2023-05-16T01:09:53.538Z,46.73
2023-05-16T01:11:00.651Z,44.20
2023-05-16T01:12:16.199Z,46.37
2023-05-16T01:13:24.447Z,46.93
2023-05-16T01:14:48.953Z,44.73
2023-05-16T01:15:56.009Z,45.43
2023-05-16T01:17:07.188Z,46.23
2023-05-16T01:18:13.155Z,48.73
2023-05-16T01:19:37.530Z,46.90
2023-05-16T01:20:57.300Z,43.90
2023-05-16T01:22:17.217Z,45.73
2023-05-16T01:23:33.427Z,49.27
2023-05-16T01:24:40.459Z,46.73
2023-05-16T01:25:47.758Z,46.37
2023-05-16T01:26:49.767Z,44.67
2023-05-16T01:27:52.224Z,45.77
2023-05-16T01:28:54.548Z,49.03
2023-05-16T01:29:56.196Z,46.60
2023-05-16T01:30:57.496Z,47.70
2023-05-16T01:32:01.516Z,42.93
2023-05-16T01:33:03.014Z,45.63
2023-05-16T01:34:04.546Z,46.23
2023-05-16T01:35:09.773Z,44.57
2023-05-16T01:36:16.944Z,45.80
2023-05-16T01:37:21.252Z,45.80
2023-05-16T01:38:26.640Z,45.40
2023-05-16T01:39:43.522Z,45.47
2023-05-16T01:40:53.229Z,45.00
2023-05-16T01:42:04.535Z,43.73
2023-05-16T01:43:08.766Z,43.70
2023-05-16T01:44:24.817Z,44.47
2023-05-16T01:45:28.853Z,41.23
2023-05-16T01:46:31.694Z,43.33
2023-05-16T01:47:37.320Z,45.63
2023-05-16T01:48:50.942Z,45.93
2023-05-16T01:50:13.607Z,42.37
2023-05-16T01:51:14.963Z,43.00
2023-05-16T01:52:19.991Z,42.17
2023-05-16T01:53:29.375Z,42.13
2023-05-16T01:54:31.529Z,41.43
2023-05-16T01:55:48.872Z,42.70
2023-05-16T01:56:53.385Z,43.87
2023-05-16T01:57:55.646Z,41.03
2023-05-16T01:58:57.972Z,43.00
2023-05-16T01:59:59.298Z,42.50
2023-05-16T02:01:04.582Z,39.97
2023-05-16T02:02:06.152Z,43.00
2023-05-16T02:03:07.918Z,43.67
2023-05-16T02:04:09.548Z,46.90
2023-05-16T02:05:11.067Z,46.43
2023-05-16T02:06:12.405Z,43.00
2023-05-16T02:07:16.739Z,39.60
2023-05-16T02:08:20.239Z,40.87
2023-05-16T02:09:25.986Z,42.00
2023-05-16T02:10:27.461Z,44.30
2023-05-16T02:11:28.767Z,40.50
2023-05-16T02:12:30.248Z,41.67
2023-05-16T02:13:31.872Z,43.03
2023-05-16T02:14:37.547Z,41.40
2023-05-16T02:15:38.979Z,41.80
2023-05-16T02:16:40.399Z,39.73
2023-05-16T02:17:41.845Z,43.27
2023-05-16T02:18:45.119Z,41.63
2023-05-16T02:19:46.617Z,41.50
2023-05-16T02:20:47.934Z,41.10
2023-05-16T02:21:51.175Z,40.67
2023-05-16T02:22:52.606Z,42.37
2023-05-16T02:23:54.053Z,40.23
2023-05-16T02:24:56.337Z,38.97
2023-05-16T02:25:57.656Z,39.90
2023-05-16T02:26:59.003Z,44.30
2023-05-16T02:28:00.468Z,41.00
2023-05-16T02:29:02.110Z,41.87
2023-05-16T02:30:05.449Z,40.30
2023-05-16T02:31:06.853Z,39.77
2023-05-16T02:32:08.307Z,39.90
2023-05-16T02:33:10.507Z,39.90
2023-05-16T02:34:11.931Z,37.00
2023-05-16T02:35:13.388Z,39.67
2023-05-16T02:36:14.902Z,42.17
2023-05-16T02:37:17.251Z,40.17
2023-05-16T02:38:20.945Z,39.83
2023-05-16T02:39:23.014Z,39.80
2023-05-16T02:40:25.987Z,34.37
2023-05-16T02:41:27.849Z,37.63
2023-05-16T02:42:29.336Z,41.80
2023-05-16T02:43:30.730Z,37.00
2023-05-16T02:44:32.054Z,39.47
2023-05-16T02:45:33.503Z,36.53
2023-05-16T02:46:35.363Z,36.70
2023-05-16T02:47:38.674Z,36.37
2023-05-16T02:48:40.429Z,34.43
2023-05-16T02:49:41.729Z,32.47
2023-05-16T02:50:43.077Z,37.13
2023-05-16T02:51:45.108Z,38.60
2023-05-16T02:52:47.222Z,36.40
2023-05-16T02:53:48.793Z,31.87
2023-05-16T02:55:04.779Z,32.40
2023-05-16T02:56:11.826Z,31.80
2023-05-16T02:57:14.981Z,30.37
2023-05-16T02:58:16.384Z,31.97
2023-05-16T02:59:17.708Z,29.50
2023-05-16T03:00:19.731Z,30.03
2023-05-16T03:01:21.728Z,31.40
2023-05-16T03:02:23.207Z,33.23
2023-05-16T03:03:24.743Z,31.07
2023-05-16T03:04:26.242Z,28.40
2023-05-16T03:05:29.008Z,29.37
2023-05-16T03:06:30.510Z,28.53
2023-05-16T03:07:34.156Z,27.47
2023-05-16T03:08:35.988Z,29.07
2023-05-16T03:09:37.440Z,27.67
2023-05-16T03:10:38.728Z,29.07
2023-05-16T03:11:41.328Z,26.10
2023-05-16T03:12:42.719Z,27.23
2023-05-16T03:13:44.008Z,26.43
2023-05-16T03:14:45.412Z,29.07
2023-05-16T03:15:46.877Z,24.43
2023-05-16T03:16:48.372Z,31.30
2023-05-16T03:17:49.771Z,26.70
2023-05-16T03:18:51.216Z,29.63
2023-05-16T03:19:52.684Z,25.80
2023-05-16T03:20:54.045Z,29.27
2023-05-16T03:21:58.291Z,27.27
2023-05-16T03:22:59.571Z,26.70
2023-05-16T03:24:02.283Z,27.37
2023-05-16T03:25:04.799Z,27.87
2023-05-16T03:26:06.231Z,25.50
2023-05-16T03:27:08.048Z,23.53
2023-05-16T03:28:09.573Z,24.53
2023-05-16T03:29:11.023Z,29.33
2023-05-16T03:30:13.020Z,28.67
2023-05-16T03:31:14.392Z,28.70
2023-05-16T03:32:16.058Z,25.53
2023-05-16T03:33:17.376Z,27.47
2023-05-16T03:34:18.788Z,30.93
2023-05-16T03:35:20.290Z,25.63
2023-05-16T03:36:22.570Z,25.07
2023-05-16T03:37:23.872Z,29.00
2023-05-16T03:38:25.354Z,24.73
2023-05-16T03:39:26.679Z,31.33
2023-05-16T03:40:28.544Z,26.17
2023-05-16T03:41:29.844Z,29.50
2023-05-16T03:42:32.186Z,30.03
2023-05-16T03:43:33.643Z,24.03
2023-05-16T03:44:34.928Z,26.63
2023-05-16T03:45:36.280Z,27.23
2023-05-16T03:46:37.595Z,25.60
2023-05-16T03:47:38.949Z,25.80
2023-05-16T03:48:40.350Z,27.90
2023-05-16T03:49:41.691Z,26.47
2023-05-16T03:50:43.016Z,25.40
2023-05-16T03:51:44.302Z,27.30
2023-05-16T03:52:45.828Z,25.97
2023-05-16T03:53:47.129Z,26.83
2023-05-16T03:54:48.425Z,28.17
2023-05-16T03:55:49.701Z,25.27
2023-05-16T03:56:50.976Z,27.40
2023-05-16T03:57:53.071Z,27.27
2023-05-16T03:58:54.420Z,24.87
2023-05-16T03:59:55.821Z,28.97
2023-05-16T04:00:57.406Z,26.90
2023-05-16T04:01:58.993Z,26.97
2023-05-16T04:03:00.357Z,27.50
2023-05-16T04:04:01.693Z,25.87
2023-05-16T04:05:03.522Z,28.83
2023-05-16T04:06:05.063Z,28.47
2023-05-16T04:07:06.659Z,28.53
2023-05-16T04:08:08.042Z,29.63
2023-05-16T04:09:09.612Z,26.07
2023-05-16T04:10:11.184Z,26.87
2023-05-16T04:11:12.490Z,27.83
2023-05-16T04:12:13.835Z,32.00
2023-05-16T04:13:15.384Z,28.50
2023-05-16T04:14:16.988Z,27.83
2023-05-16T04:15:18.325Z,27.03
2023-05-16T04:16:19.770Z,30.00
2023-05-16T04:17:21.175Z,26.67
2023-05-16T04:18:22.464Z,25.93
2023-05-16T04:19:24.007Z,26.47
2023-05-16T04:20:25.456Z,26.83
2023-05-16T04:21:26.914Z,28.27
2023-05-16T04:22:28.241Z,27.07
2023-05-16T04:23:29.530Z,26.70
2023-05-16T04:24:30.820Z,26.10
2023-05-16T04:25:32.702Z,28.20
2023-05-16T04:26:34.249Z,27.40
2023-05-16T04:27:35.581Z,24.67
2023-05-16T04:28:37.027Z,28.83
2023-05-16T04:29:38.331Z,28.23
2023-05-16T04:30:39.615Z,27.90
2023-05-16T04:31:41.001Z,24.63
2023-05-16T04:32:42.471Z,26.20
2023-05-16T04:33:43.844Z,23.40
2023-05-16T04:34:46.705Z,28.87
2023-05-16T04:35:48.574Z,25.50
2023-05-16T04:36:50.147Z,25.70
2023-05-16T04:37:51.517Z,29.30
2023-05-16T04:38:52.856Z,28.33
2023-05-16T04:39:54.737Z,27.80
2023-05-16T04:40:56.480Z,24.47
2023-05-16T04:42:01.341Z,29.47
2023-05-16T04:43:02.609Z,28.63
2023-05-16T04:44:04.462Z,28.73
2023-05-16T04:45:06.688Z,27.53
2023-05-16T04:46:08.119Z,24.77
2023-05-16T04:47:09.683Z,25.97
2023-05-16T04:48:12.186Z,28.50
2023-05-16T04:49:14.506Z,28.70
2023-05-16T04:50:20.973Z,23.83
2023-05-16T04:51:22.458Z,25.13
2023-05-16T04:52:23.828Z,27.70
2023-05-16T04:53:25.220Z,27.20
2023-05-16T04:54:26.920Z,25.53
2023-05-16T04:55:28.552Z,27.27
2023-05-16T04:56:30.299Z,25.43
2023-05-16T04:57:31.874Z,26.70
2023-05-16T04:58:33.200Z,27.63
2023-05-16T04:59:34.459Z,27.20
2023-05-16T05:00:35.835Z,25.30
2023-05-16T05:01:37.576Z,29.20
2023-05-16T05:02:42.082Z,26.23
2023-05-16T05:03:44.328Z,28.47
2023-05-16T05:04:47.402Z,25.87
2023-05-16T05:05:52.140Z,23.63
2023-05-16T05:06:53.460Z,27.33
2023-05-16T05:07:54.796Z,26.40
2023-05-16T05:08:56.104Z,26.57
2023-05-16T05:09:57.436Z,30.27
2023-05-16T05:10:58.734Z,28.13
2023-05-16T05:12:00.154Z,26.60
2023-05-16T05:13:01.548Z,25.07
2023-05-16T05:14:03.624Z,27.07
2023-05-16T05:15:06.193Z,24.07
2023-05-16T05:16:07.878Z,26.23
2023-05-16T05:17:09.195Z,25.33
2023-05-16T05:18:10.876Z,27.33
2023-05-16T05:19:12.475Z,24.57
2023-05-16T05:20:13.876Z,29.17
2023-05-16T05:21:15.159Z,28.67
2023-05-16T05:22:16.735Z,24.60
2023-05-16T05:23:18.217Z,24.00
2023-05-16T05:24:19.752Z,23.20
2023-05-16T05:25:21.125Z,23.90
2023-05-16T05:26:22.641Z,23.90
2023-05-16T05:27:25.345Z,26.17
2023-05-16T05:28:26.732Z,26.77
2023-05-16T05:29:28.178Z,22.63
2023-05-16T05:30:29.713Z,19.37
2023-05-16T05:31:31.306Z,21.60
2023-05-16T05:32:32.770Z,22.13
2023-05-16T05:33:34.212Z,25.37
2023-05-16T05:34:35.810Z,21.00
2023-05-16T05:35:37.711Z,20.70
2023-05-16T05:36:39.381Z,22.13
2023-05-16T05:37:40.972Z,24.13
2023-05-16T05:38:42.288Z,20.43
2023-05-16T05:39:43.800Z,20.73
2023-05-16T05:40:45.129Z,21.03
2023-05-16T05:41:46.657Z,16.93
2023-05-16T05:42:48.443Z,17.73
2023-05-16T05:43:49.882Z,17.23
2023-05-16T05:44:51.512Z,19.10
2023-05-16T05:45:53.935Z,19.77
2023-05-16T05:46:57.319Z,20.97
2023-05-16T05:47:58.784Z,17.50
2023-05-16T05:49:00.368Z,20.73
2023-05-16T05:50:02.621Z,17.63
2023-05-16T05:51:04.107Z,18.97
2023-05-16T05:52:05.871Z,17.60
2023-05-16T05:53:07.240Z,16.37
2023-05-16T05:54:08.800Z,19.57
2023-05-16T05:55:10.124Z,16.73
2023-05-16T05:56:11.658Z,17.03
2023-05-16T05:57:13.145Z,15.47
2023-05-16T05:58:14.489Z,14.90
2023-05-16T05:59:16.045Z,14.73
2023-05-16T06:00:18.734Z,16.87
2023-05-16T06:01:21.232Z,16.33
2023-05-16T06:02:22.620Z,16.37
2023-05-16T06:03:24.293Z,14.70
2023-05-16T06:04:25.909Z,14.23
2023-05-16T06:05:27.835Z,15.80
2023-05-16T06:06:29.473Z,11.97
2023-05-16T06:07:34.136Z,13.30
2023-05-16T06:08:35.733Z,15.37
2023-05-16T06:09:37.046Z,14.93
2023-05-16T06:10:38.418Z,11.37
2023-05-16T06:11:39.823Z,9.67
2023-05-16T06:12:41.186Z,11.03
2023-05-16T06:13:42.556Z,13.00
2023-05-16T06:14:44.029Z,12.43
2023-05-16T06:15:49.757Z,11.43
2023-05-16T06:16:53.551Z,13.53
2023-05-16T06:17:54.896Z,11.67
2023-05-16T06:18:58.607Z,12.43
2023-05-16T06:20:00.158Z,10.47
2023-05-16T06:21:01.692Z,10.80
2023-05-16T06:22:02.993Z,9.53
2023-05-16T06:23:04.764Z,10.57
2023-05-16T06:24:06.272Z,11.33
2023-05-16T06:25:07.785Z,8.47
2023-05-16T06:26:09.157Z,9.07
2023-05-16T06:27:10.576Z,10.07
2023-05-16T06:28:12.270Z,9.03
2023-05-16T06:29:13.686Z,11.90
2023-05-16T06:30:15.971Z,7.50
2023-05-16T06:31:17.305Z,5.87
2023-05-16T06:32:18.605Z,6.53
2023-05-16T06:33:20.152Z,7.27
2023-05-16T06:34:27.534Z,6.53
2023-05-16T06:35:29.099Z,7.03
2023-05-16T06:36:31.019Z,5.30
2023-05-16T06:37:32.326Z,7.47
2023-05-16T06:38:33.948Z,5.10
2023-05-16T06:39:35.413Z,5.30
2023-05-16T06:40:37.540Z,5.77
2023-05-16T06:41:38.844Z,5.73
2023-05-16T06:42:40.552Z,6.53
2023-05-16T06:43:41.960Z,5.70
2023-05-16T06:44:43.335Z,3.87
2023-05-16T06:45:44.808Z,5.53
2023-05-16T06:46:46.235Z,4.17
2023-05-16T06:47:47.653Z,5.93
2023-05-16T06:48:49.051Z,5.20
2023-05-16T06:49:50.922Z,4.63
2023-05-16T06:50:52.498Z,2.90
2023-05-16T06:51:53.928Z,3.57
2023-05-16T06:52:55.307Z,3.90
2023-05-16T06:53:56.946Z,4.30
2023-05-16T06:54:58.304Z,4.70
2023-05-16T06:55:59.692Z,3.13
2023-05-16T06:57:01.055Z,4.57
2023-05-16T06:58:02.425Z,2.87
2023-05-16T06:59:03.760Z,3.07
2023-05-16T07:00:05.606Z,3.00
2023-05-16T07:01:06.924Z,2.73
2023-05-16T07:02:08.309Z,3.60
2023-05-16T07:03:09.796Z,4.63
2023-05-16T07:04:11.287Z,3.20
2023-05-16T07:05:12.831Z,3.60
2023-05-16T07:06:14.187Z,5.87
2023-05-16T07:07:16.093Z,4.37
2023-05-16T07:08:17.405Z,3.27
2023-05-16T07:09:18.997Z,3.43
2023-05-16T07:10:21.083Z,2.73
2023-05-16T07:11:22.513Z,3.97
2023-05-16T07:12:23.898Z,2.60
2023-05-16T07:13:25.541Z,3.40
2023-05-16T07:14:27.026Z,3.00
2023-05-16T07:15:28.623Z,5.97
2023-05-16T07:16:30.421Z,3.10
2023-05-16T07:17:31.768Z,3.00
2023-05-16T07:18:33.254Z,3.67
2023-05-16T07:19:34.668Z,2.40
2023-05-16T07:20:36.423Z,2.20
2023-05-16T07:21:37.777Z,2.70
2023-05-16T07:22:43.382Z,3.43
2023-05-16T07:24:11.440Z,5.63
2023-05-16T07:25:12.754Z,3.07
2023-05-16T07:26:14.538Z,2.27
2023-05-16T07:27:20.970Z,2.23
2023-05-16T07:28:23.673Z,3.37
2023-05-16T07:29:25.190Z,2.77
2023-05-16T07:30:26.657Z,3.83
2023-05-16T07:31:28.120Z,2.37
2023-05-16T07:32:29.504Z,2.60
2023-05-16T07:33:31.008Z,2.53
2023-05-16T07:34:32.389Z,2.47
2023-05-16T07:35:33.729Z,2.17
2023-05-16T07:36:35.142Z,2.37
2023-05-16T07:37:36.513Z,2.83
2023-05-16T07:38:37.987Z,4.53
2023-05-16T07:39:40.005Z,2.03
2023-05-16T07:40:41.460Z,3.77
2023-05-16T07:41:44.856Z,2.70
2023-05-16T07:42:46.213Z,2.10
2023-05-16T07:43:47.599Z,3.03
2023-05-16T07:44:49.004Z,3.83
2023-05-16T07:45:50.741Z,1.80
2023-05-16T07:46:52.178Z,3.00
2023-05-16T07:47:53.658Z,1.80
2023-05-16T07:48:55.172Z,2.43
2023-05-16T07:49:56.622Z,2.17
2023-05-16T07:50:57.986Z,2.70
2023-05-16T07:51:59.849Z,1.90
2023-05-16T07:53:01.361Z,3.30
2023-05-16T07:54:02.975Z,5.27
2023-05-16T07:55:04.511Z,2.83
2023-05-16T07:56:06.755Z,2.37
2023-05-16T07:57:08.099Z,2.50
2023-05-16T07:58:09.513Z,2.97
2023-05-16T07:59:11.581Z,2.83
2023-05-16T08:00:13.381Z,2.50
2023-05-16T08:01:14.805Z,2.10
2023-05-16T08:02:17.101Z,1.70
2023-05-16T08:03:18.723Z,3.33
2023-05-16T08:04:20.322Z,3.43
2023-05-16T08:05:21.842Z,3.73
2023-05-16T08:06:23.231Z,2.60
2023-05-16T08:07:24.587Z,1.80
2023-05-16T08:08:28.672Z,1.40
2023-05-16T08:09:30.212Z,2.53
2023-05-16T08:10:31.624Z,3.83
2023-05-16T08:11:33.012Z,3.60
2023-05-16T08:12:34.557Z,2.00
2023-05-16T08:13:36.023Z,3.27
2023-05-16T08:14:37.428Z,2.57
2023-05-16T08:15:38.916Z,3.23
2023-05-16T08:16:40.423Z,2.57
2023-05-16T08:17:42.294Z,2.47
2023-05-16T08:18:43.713Z,2.17
2023-05-16T08:19:45.159Z,3.13
2023-05-16T08:20:46.645Z,2.13
2023-05-16T08:21:48.277Z,4.50
2023-05-16T08:22:49.765Z,2.57
2023-05-16T08:23:51.231Z,2.63
2023-05-16T08:24:52.914Z,3.30
2023-05-16T08:25:54.781Z,2.77
2023-05-16T08:26:56.135Z,2.20
2023-05-16T08:27:57.958Z,2.57
2023-05-16T08:28:59.394Z,1.50
2023-05-16T08:30:00.857Z,1.50
2023-05-16T08:31:02.252Z,1.73
2023-05-16T08:32:04.127Z,3.27
2023-05-16T08:33:06.406Z,1.30
2023-05-16T08:34:09.345Z,1.97
2023-05-16T08:35:11.327Z,1.00
2023-05-16T08:36:12.721Z,1.73
2023-05-16T08:37:15.967Z,3.93
2023-05-16T08:38:18.923Z,1.93
2023-05-16T08:39:20.385Z,1.63
2023-05-16T08:40:22.366Z,2.63
2023-05-16T08:41:23.856Z,1.77
2023-05-16T08:42:25.831Z,1.30
2023-05-16T08:43:27.568Z,2.90
2023-05-16T08:44:28.929Z,1.03
2023-05-16T08:45:31.211Z,0.93
2023-05-16T08:46:33.277Z,1.40
2023-05-16T08:47:36.580Z,3.07
2023-05-16T08:48:38.628Z,2.80
2023-05-16T08:49:41.424Z,1.37
2023-05-16T08:50:43.981Z,2.20
2023-05-16T08:51:46.447Z,1.10
2023-05-16T08:52:51.364Z,1.70
2023-05-16T08:53:54.535Z,2.40
2023-05-16T08:55:09.202Z,3.23
2023-05-16T08:56:13.319Z,1.50
2023-05-16T08:57:15.469Z,3.53
2023-05-16T08:58:17.601Z,3.93
2023-05-16T08:59:19.301Z,1.33
2023-05-16T09:00:21.963Z,1.30
2023-05-16T09:01:23.747Z,1.30
2023-05-16T09:02:25.442Z,1.17
2023-05-16T09:03:28.883Z,3.70
2023-05-16T09:04:30.495Z,2.33
2023-05-16T09:05:32.161Z,2.30
2023-05-16T09:06:33.548Z,2.60
2023-05-16T09:07:34.977Z,1.20
2023-05-16T09:08:36.370Z,2.17
2023-05-16T09:09:37.702Z,2.40
2023-05-16T09:10:39.071Z,3.40
2023-05-16T09:11:40.618Z,2.40
2023-05-16T09:12:42.306Z,1.83
2023-05-16T09:13:43.757Z,1.63
2023-05-16T09:14:45.285Z,2.63
2023-05-16T09:15:46.680Z,3.07
2023-05-16T09:17:03.392Z,1.90
2023-05-16T09:18:05.302Z,1.23
2023-05-16T09:19:06.926Z,3.20
2023-05-16T09:20:09.277Z,2.57
2023-05-16T09:21:11.658Z,1.70
2023-05-16T09:22:13.813Z,1.40
2023-05-16T09:23:15.688Z,1.37
2023-05-16T09:24:17.093Z,2.23
2023-05-16T09:25:29.642Z,6.20
2023-05-16T09:26:33.204Z,2.13
2023-05-16T09:27:34.793Z,1.90
2023-05-16T09:28:39.741Z,3.57
2023-05-16T09:29:41.916Z,1.93
2023-05-16T09:30:46.001Z,1.10
2023-05-16T09:31:49.399Z,2.50
2023-05-16T09:32:52.017Z,1.93
2023-05-16T09:33:53.841Z,1.50
2023-05-16T09:34:57.775Z,4.37
2023-05-16T09:35:59.658Z,1.90
2023-05-16T09:37:01.133Z,1.10
2023-05-16T09:38:02.596Z,1.47
2023-05-16T09:39:06.635Z,3.17
2023-05-16T09:40:10.196Z,0.60
2023-05-16T09:41:11.961Z,0.50
2023-05-16T09:42:14.040Z,1.37
2023-05-16T09:43:16.784Z,0.70
2023-05-16T09:44:18.774Z,1.73
2023-05-16T09:45:20.179Z,1.77
2023-05-16T09:46:25.632Z,0.90
2023-05-16T09:47:27.865Z,3.80
2023-05-16T09:48:29.350Z,0.60
2023-05-16T09:49:30.905Z,0.60
2023-05-16T09:50:36.603Z,2.73
2023-05-16T09:51:39.174Z,1.20
2023-05-16T09:52:40.712Z,1.30
2023-05-16T09:53:42.181Z,1.03
2023-05-16T09:54:43.692Z,0.40
2023-05-16T09:55:45.097Z,1.07
2023-05-16T09:56:50.652Z,1.60
2023-05-16T09:57:52.230Z,0.23
2023-05-16T09:58:53.745Z,4.00
2023-05-16T09:59:55.246Z,0.47
2023-05-16T10:00:57.534Z,1.47
2023-05-16T10:02:00.464Z,0.63
2023-05-16T10:03:04.825Z,0.33
2023-05-16T10:04:10.524Z,1.50
2023-05-16T10:05:12.177Z,2.20
2023-05-16T10:06:13.878Z,1.00
2023-05-16T10:07:16.307Z,1.07
2023-05-16T10:08:18.058Z,0.73
2023-05-16T10:09:19.695Z,0.70
2023-05-16T10:10:21.154Z,0.73
2023-05-16T10:11:22.603Z,2.00
2023-05-16T10:12:27.151Z,1.40
2023-05-16T10:13:29.528Z,1.33
2023-05-16T10:14:34.307Z,3.23
2023-05-16T10:15:36.767Z,1.90
2023-05-16T10:16:42.064Z,1.27
2023-05-16T10:17:45.620Z,2.80
2023-05-16T10:18:47.046Z,1.17
2023-05-16T10:19:48.524Z,3.90
2023-05-16T10:20:53.154Z,1.07
2023-05-16T10:21:59.520Z,0.60
2023-05-16T10:23:02.541Z,2.00
2023-05-16T10:24:05.788Z,1.40
2023-05-16T10:25:07.301Z,0.70
2023-05-16T10:26:08.970Z,1.57
2023-05-16T10:27:10.572Z,1.17
2023-05-16T10:28:12.760Z,2.63
2023-05-16T10:29:14.356Z,1.90
2023-05-16T10:30:17.224Z,2.13
2023-05-16T10:31:18.719Z,0.87
2023-05-16T10:32:25.502Z,1.50
2023-05-16T10:33:27.116Z,1.10
2023-05-16T10:34:29.006Z,2.50
2023-05-16T10:35:31.393Z,1.17
2023-05-16T10:36:33.054Z,0.73
2023-05-16T10:37:34.765Z,1.80
2023-05-16T10:38:37.730Z,1.13
2023-05-16T10:39:39.728Z,1.93
2023-05-16T10:40:41.575Z,2.40
2023-05-16T10:41:43.331Z,1.67
2023-05-16T10:42:55.942Z,1.20
2023-05-16T10:44:05.692Z,0.50
2023-05-16T10:45:25.452Z,6.23
2023-05-16T10:46:28.233Z,1.60
2023-05-16T10:47:29.785Z,3.63
2023-05-16T10:48:32.806Z,2.40
2023-05-16T10:49:34.609Z,0.93
2023-05-16T10:50:45.922Z,2.03
2023-05-16T10:51:50.840Z,1.40
2023-05-16T10:52:52.736Z,0.70
2023-05-16T10:53:54.623Z,2.30
2023-05-16T10:54:57.179Z,1.27
2023-05-16T10:55:58.677Z,2.03
2023-05-16T10:57:04.203Z,1.73
2023-05-16T10:58:05.724Z,1.00
2023-05-16T10:59:26.510Z,0.70
2023-05-16T11:00:30.512Z,2.33
2023-05-16T11:01:33.062Z,2.17
2023-05-16T11:02:40.809Z,1.07
2023-05-16T11:04:00.890Z,1.50
2023-05-16T11:05:02.789Z,3.27
2023-05-16T11:06:05.861Z,3.17
2023-05-16T11:07:10.540Z,4.13
2023-05-16T11:08:11.907Z,3.07
2023-05-16T11:09:16.279Z,4.70
2023-05-16T11:10:17.746Z,1.60
2023-05-16T11:11:37.974Z,1.07
2023-05-16T11:12:44.436Z,1.80
2023-05-16T11:13:55.464Z,3.30
2023-05-16T11:14:58.102Z,2.47
2023-05-16T11:16:18.123Z,2.13
2023-05-16T11:17:26.727Z,4.70
2023-05-16T11:18:31.928Z,1.97
2023-05-16T11:19:40.880Z,1.83
2023-05-16T11:20:44.784Z,2.30
2023-05-16T11:22:09.685Z,3.17
2023-05-16T11:23:17.188Z,3.33
2023-05-16T11:24:28.165Z,3.57
2023-05-16T11:25:41.079Z,1.70
2023-05-16T11:26:43.104Z,0.97
2023-05-16T11:27:48.040Z,3.20
2023-05-16T11:28:50.044Z,1.30
2023-05-16T11:29:52.365Z,2.47
2023-05-16T11:30:56.137Z,1.07
2023-05-16T11:31:58.812Z,2.90
2023-05-16T11:33:00.380Z,3.63
2023-05-16T11:34:02.023Z,3.83
2023-05-16T11:35:04.318Z,4.80
2023-05-16T11:37:13.617Z,2.40
2023-05-16T11:38:17.606Z,3.10
2023-05-16T11:39:19.603Z,6.50
2023-05-16T11:40:21.099Z,2.07
2023-05-16T11:41:22.767Z,1.40
2023-05-16T11:42:24.263Z,1.97
2023-05-16T11:43:26.102Z,4.80
2023-05-16T11:44:27.763Z,4.07
2023-05-16T11:45:29.392Z,2.47
2023-05-16T11:46:30.989Z,4.77
2023-05-16T11:47:32.428Z,1.10
2023-05-16T11:48:36.650Z,4.40
2023-05-16T11:49:38.365Z,2.70
2023-05-16T11:50:42.206Z,1.40
2023-05-16T11:51:43.624Z,3.30
2023-05-16T11:52:46.628Z,1.93
2023-05-16T11:53:49.785Z,3.10
2023-05-16T11:54:51.690Z,4.27
2023-05-16T11:55:55.694Z,2.13
2023-05-16T11:56:57.359Z,2.33
2023-05-16T11:57:59.075Z,3.00
2023-05-16T11:59:00.770Z,3.77
2023-05-16T12:00:07.916Z,2.53
2023-05-16T12:01:10.252Z,2.07
2023-05-16T12:02:11.701Z,1.70
2023-05-16T12:03:13.471Z,3.17
2023-05-16T12:04:15.619Z,2.50
2023-05-16T12:05:18.067Z,3.37
2023-05-16T12:06:19.394Z,6.23
2023-05-16T12:07:23.359Z,3.20
2023-05-16T12:08:25.216Z,4.93
2023-05-16T12:09:26.697Z,5.03
2023-05-16T12:10:28.253Z,7.50
2023-05-16T12:11:30.278Z,3.50
2023-05-16T12:12:31.624Z,8.20
2023-05-16T12:13:33.077Z,5.37
2023-05-16T12:14:34.586Z,7.33
2023-05-16T12:15:35.976Z,5.00
2023-05-16T12:16:37.965Z,6.37
2023-05-16T12:17:40.080Z,4.87
2023-05-16T12:18:43.512Z,6.10
2023-05-16T12:19:46.418Z,5.50
2023-05-16T12:20:47.842Z,6.57
2023-05-16T12:21:52.467Z,3.43
2023-05-16T12:22:57.398Z,2.93
2023-05-16T12:23:58.858Z,3.90
2023-05-16T12:25:15.346Z,4.13
2023-05-16T12:26:23.198Z,6.93
2023-05-16T12:27:25.331Z,4.03
2023-05-16T12:28:30.816Z,4.40
2023-05-16T12:29:32.161Z,6.63
2023-05-16T12:30:33.782Z,2.50
2023-05-16T12:31:41.639Z,4.20
2023-05-16T12:32:43.373Z,8.27
2023-05-16T12:33:45.399Z,6.80
2023-05-16T12:34:51.840Z,3.83
2023-05-16T12:35:54.436Z,4.50
2023-05-16T12:36:55.876Z,6.37
2023-05-16T12:37:57.319Z,4.93
2023-05-16T12:39:05.192Z,5.43
2023-05-16T12:40:06.980Z,7.23
2023-05-16T12:41:08.439Z,5.20
2023-05-16T12:42:11.575Z,5.10
2023-05-16T12:43:16.629Z,6.40
2023-05-16T12:44:19.552Z,3.77
2023-05-16T12:45:22.070Z,4.77
2023-05-16T12:46:25.402Z,4.77
2023-05-16T12:47:35.135Z,10.03
2023-05-16T12:48:36.982Z,3.17
2023-05-16T12:49:47.848Z,4.07
2023-05-16T12:50:49.368Z,6.83
2023-05-16T12:51:52.055Z,6.77
2023-05-16T12:52:54.419Z,4.73
2023-05-16T12:54:06.052Z,4.67
2023-05-16T12:55:14.470Z,6.80
2023-05-16T12:56:16.208Z,5.87
2023-05-16T12:57:17.685Z,7.53
2023-05-16T12:58:19.776Z,5.53
2023-05-16T12:59:21.225Z,6.73
2023-05-16T13:00:23.391Z,4.30
2023-05-16T13:01:24.846Z,8.23
2023-05-16T13:02:26.386Z,6.83
2023-05-16T13:03:27.958Z,4.50
2023-05-16T13:04:29.935Z,5.77
2023-05-16T13:05:31.482Z,6.60
2023-05-16T13:06:48.890Z,3.97
2023-05-16T13:07:54.460Z,5.23
2023-05-16T13:08:56.239Z,6.70
2023-05-16T13:09:57.665Z,7.20
2023-05-16T13:10:59.092Z,5.63
2023-05-16T13:12:00.878Z,5.37
2023-05-16T13:13:02.569Z,8.63
2023-05-16T13:14:04.204Z,5.93
2023-05-16T13:15:07.445Z,6.10
2023-05-16T13:16:10.247Z,5.97
2023-05-16T13:17:11.901Z,4.57
2023-05-16T13:18:13.676Z,6.10
2023-05-16T13:19:15.174Z,4.97
2023-05-16T13:20:17.318Z,7.67
2023-05-16T13:21:18.751Z,5.87
2023-05-16T13:22:20.133Z,5.80
2023-05-16T13:23:21.692Z,3.87
2023-05-16T13:24:23.027Z,6.80
2023-05-16T13:25:24.478Z,4.37
2023-05-16T13:26:27.374Z,5.50
2023-05-16T13:27:28.713Z,5.67
2023-05-16T13:28:30.030Z,6.07
2023-05-16T13:29:31.405Z,7.60
2023-05-16T13:30:32.891Z,4.83
2023-05-16T13:31:34.303Z,5.07
2023-05-16T13:32:35.997Z,5.57
2023-05-16T13:33:37.708Z,6.00
2023-05-16T13:34:39.108Z,5.90
2023-05-16T13:35:40.493Z,6.97
2023-05-16T13:37:51.100Z,8.27
2023-05-16T13:38:52.460Z,6.33
2023-05-16T13:39:54.831Z,4.47
2023-05-16T13:40:56.319Z,8.23
2023-05-16T13:41:58.983Z,5.70
2023-05-16T13:43:01.599Z,3.57
2023-05-16T13:44:03.199Z,6.03
2023-05-16T13:45:05.013Z,5.30
2023-05-16T13:46:06.442Z,6.87